createdAt,value
2017-05-13T00:00:33.616Z,0
2017-05-13T00:01:33.730Z,0
2017-05-13T00:02:33.333Z,0
2017-05-13T00:03:33.332Z,0
2017-05-13T00:04:33.702Z,0
2017-05-13T00:05:33.348Z,0
2017-05-13T00:06:33.080Z,0
2017-05-13T00:07:33.671Z,0
2017-05-13T00:08:33.367Z,0
2017-05-13T00:09:33.374Z,0
2017-05-13T00:10:33.692Z,0
2017-05-13T00:11:33.436Z,0
2017-05-13T00:12:33.394Z,0
2017-05-13T00:13:33.711Z,0
2017-05-13T00:14:33.721Z,0
2017-05-13T00:15:33.413Z,0
2017-05-13T00:16:33.730Z,0
2017-05-13T00:17:33.120Z,0
2017-05-13T00:18:33.132Z,0
2017-05-13T00:19:33.496Z,0
2017-05-13T00:20:33.456Z,0
2017-05-13T00:21:33.868Z,0
2017-05-13T00:22:33.830Z,0
2017-05-13T00:23:33.839Z,0
2017-05-13T00:24:33.798Z,0
2017-05-13T00:25:33.536Z,0
2017-05-13T00:26:33.186Z,0
2017-05-13T00:27:33.502Z,0
2017-05-13T00:28:33.870Z,0
2017-05-13T00:29:33.573Z,0
2017-05-13T00:30:33.832Z,0
2017-05-13T00:31:33.839Z,0
2017-05-13T00:32:33.596Z,0
2017-05-13T00:33:33.547Z,0
2017-05-13T00:34:33.240Z,0
2017-05-13T00:35:33.257Z,0
2017-05-13T00:36:33.876Z,0
2017-05-13T00:37:33.886Z,0
2017-05-13T00:38:33.895Z,0
2017-05-13T00:39:33.902Z,0
2017-05-13T00:40:33.962Z,0
2017-05-13T00:41:33.916Z,0
2017-05-13T00:42:33.918Z,0
2017-05-13T00:43:33.982Z,0
2017-05-13T00:44:33.630Z,0
2017-05-13T00:45:33.681Z,0
2017-05-13T00:46:33.950Z,0
2017-05-13T00:47:33.953Z,0
2017-05-13T00:48:33.963Z,0
2017-05-13T00:49:33.703Z,0
2017-05-13T00:50:33.990Z,0
2017-05-13T00:51:33.674Z,0
2017-05-13T00:52:34.048Z,0
2017-05-13T00:53:34.049Z,0
2017-05-13T00:54:34.055Z,0
2017-05-13T00:55:33.766Z,0
2017-05-13T00:56:33.761Z,0
2017-05-13T00:57:34.040Z,0
2017-05-13T00:58:33.726Z,0
2017-05-13T00:59:34.039Z,0
2017-05-13T01:00:34.091Z,0
2017-05-13T01:01:33.795Z,0
2017-05-13T01:02:33.749Z,0
2017-05-13T01:03:34.069Z,0
2017-05-13T01:04:33.773Z,0
2017-05-13T01:05:34.147Z,0
2017-05-13T01:06:33.796Z,0
2017-05-13T01:07:33.575Z,0
2017-05-13T01:08:33.892Z,0
2017-05-13T01:09:33.856Z,0
2017-05-13T01:10:33.807Z,0
2017-05-13T01:11:34.125Z,0
2017-05-13T01:12:33.820Z,0
2017-05-13T01:13:34.140Z,0
2017-05-13T01:14:33.886Z,0
2017-05-13T01:15:33.589Z,0
2017-05-13T01:16:33.853Z,0
2017-05-13T01:17:34.174Z,0
2017-05-13T01:18:33.299Z,0
2017-05-13T01:19:33.867Z,0
2017-05-13T01:20:34.193Z,0
2017-05-13T01:21:33.885Z,0
2017-05-13T01:22:33.586Z,0
2017-05-13T01:23:34.003Z,0
2017-05-13T01:24:34.327Z,0
2017-05-13T01:25:34.225Z,0
2017-05-13T01:26:33.968Z,0
2017-05-13T01:27:33.932Z,0
2017-05-13T01:28:33.941Z,0
2017-05-13T01:29:34.252Z,0
2017-05-13T01:30:34.361Z,0
2017-05-13T01:31:34.616Z,0
2017-05-13T01:32:34.270Z,0
2017-05-13T01:33:34.281Z,0
2017-05-13T01:34:34.053Z,0
2017-05-13T01:35:34.293Z,0
2017-05-13T01:36:33.681Z,0
2017-05-13T01:37:34.304Z,0
2017-05-13T01:38:33.749Z,0
2017-05-13T01:39:34.373Z,0
2017-05-13T01:40:33.751Z,0
2017-05-13T01:41:34.027Z,0
2017-05-13T01:42:34.077Z,0
2017-05-13T01:43:34.397Z,0
2017-05-13T01:44:34.046Z,0
2017-05-13T01:45:34.058Z,0
2017-05-13T01:46:33.754Z,0
2017-05-13T01:47:34.131Z,0
2017-05-13T01:48:33.822Z,0
2017-05-13T01:49:34.394Z,0
2017-05-13T01:50:34.398Z,0
2017-05-13T01:51:34.094Z,0
2017-05-13T01:52:34.459Z,0
2017-05-13T01:53:34.425Z,0
2017-05-13T01:54:34.481Z,0
2017-05-13T01:55:33.812Z,0
2017-05-13T01:56:34.183Z,0
2017-05-13T01:57:34.148Z,0
2017-05-13T01:58:34.460Z,0
2017-05-13T01:59:34.511Z,0
2017-05-13T02:00:34.214Z,0
2017-05-13T02:01:33.905Z,0
2017-05-13T02:02:33.880Z,0
2017-05-13T02:03:34.186Z,0
2017-05-13T02:04:34.495Z,0
2017-05-13T02:05:34.502Z,0
2017-05-13T02:06:34.563Z,0
2017-05-13T02:07:33.892Z,0
2017-05-13T02:08:34.523Z,0
2017-05-13T02:09:34.220Z,0
2017-05-13T02:10:33.926Z,0
2017-05-13T02:11:33.974Z,0
2017-05-13T02:12:34.245Z,0
2017-05-13T02:13:33.946Z,0
2017-05-13T02:14:34.573Z,0
2017-05-13T02:15:34.313Z,0
2017-05-13T02:16:34.269Z,0
2017-05-13T02:17:34.277Z,0
2017-05-13T02:18:34.600Z,0
2017-05-13T02:19:34.603Z,0
2017-05-13T02:20:34.409Z,0
2017-05-13T02:21:34.309Z,0
2017-05-13T02:22:34.635Z,0
2017-05-13T02:23:34.631Z,0
2017-05-13T02:24:34.065Z,0
2017-05-13T02:25:34.024Z,0
2017-05-13T02:26:34.342Z,0
2017-05-13T02:27:34.347Z,0
2017-05-13T02:28:34.681Z,0
2017-05-13T02:29:34.367Z,0
2017-05-13T02:30:34.682Z,0
2017-05-13T02:31:34.064Z,0
2017-05-13T02:32:33.815Z,0
2017-05-13T02:33:34.705Z,0
2017-05-13T02:34:34.405Z,0
2017-05-13T02:35:34.720Z,0
2017-05-13T02:36:34.461Z,0
2017-05-13T02:37:34.726Z,0
2017-05-13T02:38:34.734Z,0
2017-05-13T02:39:34.453Z,0
2017-05-13T02:40:34.490Z,0
2017-05-13T02:41:34.136Z,0
2017-05-13T02:42:34.517Z,0
2017-05-13T02:43:34.766Z,0
2017-05-13T02:44:34.155Z,0
2017-05-13T02:45:34.163Z,0
2017-05-13T02:46:34.800Z,0
2017-05-13T02:47:34.801Z,0
2017-05-13T02:48:34.813Z,0
2017-05-13T02:49:34.816Z,0
2017-05-13T02:50:34.879Z,0
2017-05-13T02:51:34.518Z,0
2017-05-13T02:52:34.620Z,0
2017-05-13T02:53:34.841Z,0
2017-05-13T02:54:34.223Z,0
2017-05-13T02:55:34.631Z,0
2017-05-13T02:56:34.554Z,0
2017-05-13T02:57:34.878Z,0
2017-05-13T02:58:34.925Z,0
2017-05-13T02:59:34.306Z,0
2017-05-13T03:00:34.892Z,0
2017-05-13T03:01:34.896Z,0
2017-05-13T03:02:34.902Z,0
2017-05-13T03:03:34.612Z,0
2017-05-13T03:04:34.658Z,0
2017-05-13T03:05:34.621Z,0
2017-05-13T03:06:34.314Z,0
2017-05-13T03:07:34.993Z,0
2017-05-13T03:08:34.687Z,0
2017-05-13T03:09:34.650Z,0
2017-05-13T03:10:34.964Z,0
2017-05-13T03:11:34.650Z,0
2017-05-13T03:12:34.407Z,0
2017-05-13T03:13:34.717Z,0
2017-05-13T03:14:35.041Z,0
2017-05-13T03:15:34.995Z,0
2017-05-13T03:16:35.004Z,0
2017-05-13T03:17:35.009Z,0
2017-05-13T03:18:34.394Z,0
2017-05-13T03:19:35.075Z,0
2017-05-13T03:20:34.412Z,0
2017-05-13T03:21:34.779Z,0
2017-05-13T03:22:35.047Z,0
2017-05-13T03:23:34.805Z,0
2017-05-13T03:24:34.744Z,0
2017-05-13T03:25:34.756Z,0
2017-05-13T03:26:34.757Z,0
2017-05-13T03:27:34.459Z,0
2017-05-13T03:28:35.091Z,0
2017-05-13T03:29:35.098Z,0
2017-05-13T03:30:35.096Z,0
2017-05-13T03:31:34.799Z,0
2017-05-13T03:32:34.181Z,0
2017-05-13T03:33:35.123Z,0
2017-05-13T03:34:34.509Z,0
2017-05-13T03:35:34.567Z,0
2017-05-13T03:36:34.829Z,0
2017-05-13T03:37:34.837Z,0
2017-05-13T03:38:34.844Z,0
2017-05-13T03:39:34.857Z,0
2017-05-13T03:40:35.217Z,0
2017-05-13T03:41:34.914Z,0
2017-05-13T03:42:34.930Z,0
2017-05-13T03:43:34.935Z,0
2017-05-13T03:44:34.938Z,0
2017-05-13T03:45:35.201Z,0
2017-05-13T03:46:34.949Z,0
2017-05-13T03:47:34.908Z,0
2017-05-13T03:48:34.919Z,0
2017-05-13T03:49:34.352Z,0
2017-05-13T03:50:34.622Z,0
2017-05-13T03:51:34.634Z,0
2017-05-13T03:52:34.684Z,0
2017-05-13T03:53:35.043Z,0
2017-05-13T03:54:35.269Z,0
2017-05-13T03:55:35.276Z,0
2017-05-13T03:56:35.328Z,0
2017-05-13T03:57:35.297Z,0
2017-05-13T03:58:34.677Z,0
2017-05-13T03:59:34.732Z,0
2017-05-13T04:00:35.061Z,0
2017-05-13T04:01:35.319Z,0
2017-05-13T04:02:35.009Z,0
2017-05-13T04:03:34.397Z,0
2017-05-13T04:04:35.343Z,0
2017-05-13T04:05:35.033Z,0
2017-05-13T04:06:35.398Z,0
2017-05-13T04:07:35.044Z,0
2017-05-13T04:08:35.375Z,0
2017-05-13T04:09:34.811Z,0
2017-05-13T04:10:35.064Z,0
2017-05-13T04:11:35.384Z,0
2017-05-13T04:12:35.393Z,0
2017-05-13T04:13:35.201Z,0
2017-05-13T04:14:34.790Z,0
2017-05-13T04:15:34.849Z,0
2017-05-13T04:16:35.118Z,0
2017-05-13T04:17:35.441Z,0
2017-05-13T04:18:35.171Z,0
2017-05-13T04:19:35.138Z,0
2017-05-13T04:20:35.138Z,0
2017-05-13T04:21:35.194Z,0
2017-05-13T04:22:35.153Z,0
2017-05-13T04:23:35.208Z,0
2017-05-13T04:24:35.165Z,0
2017-05-13T04:25:34.861Z,0
2017-05-13T04:26:35.494Z,0
2017-05-13T04:27:35.195Z,5
2017-05-13T04:28:35.557Z,5
2017-05-13T04:29:35.257Z,5
2017-05-13T04:30:35.516Z,5
2017-05-13T04:31:35.523Z,5
2017-05-13T04:32:34.962Z,5
2017-05-13T04:33:35.274Z,5
2017-05-13T04:34:35.596Z,5
2017-05-13T04:35:35.553Z,5
2017-05-13T04:36:34.940Z,5
2017-05-13T04:37:35.253Z,10
2017-05-13T04:38:35.006Z,10
2017-05-13T04:39:35.272Z,10
2017-05-13T04:40:35.318Z,15
2017-05-13T04:41:35.283Z,15
2017-05-13T04:42:35.604Z,15
2017-05-13T04:43:35.612Z,20
2017-05-13T04:44:34.687Z,20
2017-05-13T04:45:35.620Z,20
2017-05-13T04:46:35.625Z,20
2017-05-13T04:47:35.375Z,20
2017-05-13T04:48:35.646Z,20
2017-05-13T04:49:35.446Z,25
2017-05-13T04:50:35.654Z,30
2017-05-13T04:51:35.350Z,110
2017-05-13T04:52:35.672Z,90
2017-05-13T04:53:35.154Z,35
2017-05-13T04:54:35.681Z,45
2017-05-13T04:55:35.690Z,40
2017-05-13T04:56:35.440Z,135
2017-05-13T04:57:35.396Z,125
2017-05-13T04:58:35.720Z,125
2017-05-13T04:59:35.725Z,65
2017-05-13T05:00:35.424Z,50
2017-05-13T05:01:35.423Z,70
2017-05-13T05:02:35.124Z,65
2017-05-13T05:03:35.810Z,20
2017-05-13T05:04:34.820Z,20
2017-05-13T05:05:35.506Z,15
2017-05-13T05:06:35.153Z,15
2017-05-13T05:07:35.783Z,15
2017-05-13T05:08:35.483Z,15
2017-05-13T05:09:35.796Z,15
2017-05-13T05:10:35.488Z,15
2017-05-13T05:11:35.845Z,10
2017-05-13T05:12:35.816Z,10
2017-05-13T05:13:35.257Z,10
2017-05-13T05:14:35.519Z,10
2017-05-13T05:15:35.837Z,10
2017-05-13T05:16:35.853Z,10
2017-05-13T05:17:35.282Z,15
2017-05-13T05:18:35.963Z,15
2017-05-13T05:19:35.558Z,15
2017-05-13T05:20:35.567Z,15
2017-05-13T05:21:35.894Z,15
2017-05-13T05:22:35.581Z,15
2017-05-13T05:23:35.585Z,15
2017-05-13T05:24:35.908Z,15
2017-05-13T05:25:35.914Z,15
2017-05-13T05:26:35.918Z,15
2017-05-13T05:27:35.926Z,15
2017-05-13T05:28:35.619Z,20
2017-05-13T05:29:35.629Z,20
2017-05-13T05:30:35.682Z,20
2017-05-13T05:31:35.638Z,20
2017-05-13T05:32:35.698Z,20
2017-05-13T05:33:35.393Z,20
2017-05-13T05:34:35.710Z,25
2017-05-13T05:35:35.671Z,25
2017-05-13T05:36:35.989Z,25
2017-05-13T05:37:35.373Z,30
2017-05-13T05:38:36.000Z,30
2017-05-13T05:39:36.059Z,30
2017-05-13T05:40:35.453Z,30
2017-05-13T05:41:36.079Z,35
2017-05-13T05:42:36.040Z,35
2017-05-13T05:43:36.151Z,35
2017-05-13T05:44:35.733Z,35
2017-05-13T05:45:36.155Z,35
2017-05-13T05:46:35.751Z,35
2017-05-13T05:47:36.066Z,35
2017-05-13T05:48:36.137Z,35
2017-05-13T05:49:35.771Z,35
2017-05-13T05:50:36.136Z,35
2017-05-13T05:51:36.100Z,35
2017-05-13T05:52:35.790Z,35
2017-05-13T05:53:35.226Z,35
2017-05-13T05:54:35.809Z,35
2017-05-13T05:55:35.818Z,35
2017-05-13T05:56:35.513Z,35
2017-05-13T05:57:36.193Z,40
2017-05-13T05:58:36.146Z,40
2017-05-13T05:59:36.157Z,45
2017-05-13T06:00:35.899Z,55
2017-05-13T06:01:36.220Z,55
2017-05-13T06:02:35.241Z,60
2017-05-13T06:03:36.176Z,70
2017-05-13T06:04:35.885Z,85
2017-05-13T06:05:36.196Z,85
2017-05-13T06:06:36.209Z,85
2017-05-13T06:07:36.258Z,95
2017-05-13T06:08:35.906Z,100
2017-05-13T06:09:35.919Z,105
2017-05-13T06:10:35.714Z,115
2017-05-13T06:11:35.325Z,100
2017-05-13T06:12:35.936Z,90
2017-05-13T06:13:36.253Z,105
2017-05-13T06:14:35.958Z,415
2017-05-13T06:15:35.961Z,530
2017-05-13T06:16:36.289Z,500
2017-05-13T06:17:36.026Z,220
2017-05-13T06:18:36.346Z,590
2017-05-13T06:19:35.676Z,540
2017-05-13T06:20:35.738Z,590
2017-05-13T06:21:36.008Z,610
2017-05-13T06:22:36.020Z,615
2017-05-13T06:23:35.763Z,675
2017-05-13T06:24:35.775Z,685
2017-05-13T06:25:35.110Z,665
2017-05-13T06:26:36.423Z,675
2017-05-13T06:27:36.111Z,735
2017-05-13T06:28:36.072Z,760
2017-05-13T06:29:36.393Z,735
2017-05-13T06:30:36.105Z,765
2017-05-13T06:31:36.103Z,790
2017-05-13T06:32:36.418Z,785
2017-05-13T06:33:35.806Z,765
2017-05-13T06:34:36.545Z,760
2017-05-13T06:35:36.484Z,795
2017-05-13T06:36:36.518Z,825
2017-05-13T06:37:36.161Z,840
2017-05-13T06:38:36.167Z,850
2017-05-13T06:39:36.504Z,840
2017-05-13T06:40:35.929Z,875
2017-05-13T06:41:35.891Z,645
2017-05-13T06:42:36.523Z,310
2017-05-13T06:43:36.526Z,305
2017-05-13T06:44:36.591Z,140
2017-05-13T06:45:36.549Z,785
2017-05-13T06:46:36.562Z,845
2017-05-13T06:47:36.568Z,820
2017-05-13T06:48:36.322Z,830
2017-05-13T06:49:36.895Z,835
2017-05-13T06:50:36.606Z,840
2017-05-13T06:51:36.307Z,840
2017-05-13T06:52:36.674Z,830
2017-05-13T06:53:35.747Z,780
2017-05-13T06:54:36.336Z,820
2017-05-13T06:55:36.665Z,925
2017-05-13T06:56:36.041Z,960
2017-05-13T06:57:36.374Z,920
2017-05-13T06:58:36.744Z,845
2017-05-13T06:59:36.751Z,860
2017-05-13T07:00:36.714Z,860
2017-05-13T07:01:36.407Z,825
2017-05-13T07:02:36.418Z,880
2017-05-13T07:03:36.434Z,940
2017-05-13T07:04:36.231Z,910
2017-05-13T07:05:36.458Z,880
2017-05-13T07:06:36.466Z,935
2017-05-13T07:07:36.482Z,985
2017-05-13T07:08:36.500Z,890
2017-05-13T07:09:36.501Z,825
2017-05-13T07:10:36.516Z,950
2017-05-13T07:11:36.529Z,1035
2017-05-13T07:12:36.222Z,1015
2017-05-13T07:13:36.856Z,975
2017-05-13T07:14:36.245Z,885
2017-05-13T07:15:36.260Z,915
2017-05-13T07:16:36.577Z,1060
2017-05-13T07:17:36.591Z,1110
2017-05-13T07:18:36.918Z,1105
2017-05-13T07:19:36.665Z,1090
2017-05-13T07:20:36.938Z,1080
2017-05-13T07:21:36.326Z,1075
2017-05-13T07:22:36.699Z,1080
2017-05-13T07:23:37.022Z,1060
2017-05-13T07:24:36.722Z,1075
2017-05-13T07:25:36.373Z,825
2017-05-13T07:26:36.747Z,265
2017-05-13T07:27:36.816Z,95
2017-05-13T07:28:37.080Z,75
2017-05-13T07:29:37.097Z,75
2017-05-13T07:30:36.433Z,70
2017-05-13T07:31:37.067Z,85
2017-05-13T07:32:36.823Z,70
2017-05-13T07:33:36.456Z,70
2017-05-13T07:34:36.475Z,80
2017-05-13T07:35:36.846Z,80
2017-05-13T07:36:36.898Z,75
2017-05-13T07:37:36.545Z,80
2017-05-13T07:38:36.607Z,80
2017-05-13T07:39:37.185Z,80
2017-05-13T07:40:37.160Z,80
2017-05-13T07:41:37.154Z,80
2017-05-13T07:42:36.851Z,75
2017-05-13T07:43:36.291Z,75
2017-05-13T07:44:36.556Z,75
2017-05-13T07:45:36.881Z,75
2017-05-13T07:46:36.888Z,70
2017-05-13T07:47:37.204Z,75
2017-05-13T07:48:36.911Z,80
2017-05-13T07:49:37.219Z,90
2017-05-13T07:50:37.241Z,90
2017-05-13T07:51:36.619Z,85
2017-05-13T07:52:36.936Z,90
2017-05-13T07:53:36.949Z,95
2017-05-13T07:54:36.339Z,90
2017-05-13T07:55:37.272Z,85
2017-05-13T07:56:37.017Z,85
2017-05-13T07:57:36.977Z,95
2017-05-13T07:58:36.671Z,85
2017-05-13T07:59:36.992Z,80
2017-05-13T08:00:37.052Z,65
2017-05-13T08:01:37.372Z,55
2017-05-13T08:02:37.065Z,60
2017-05-13T08:03:37.021Z,60
2017-05-13T08:04:37.397Z,60
2017-05-13T08:05:37.046Z,65
2017-05-13T08:06:37.048Z,70
2017-05-13T08:07:37.054Z,65
2017-05-13T08:08:36.445Z,65
2017-05-13T08:09:37.130Z,65
2017-05-13T08:10:37.193Z,70
2017-05-13T08:11:37.095Z,70
2017-05-13T08:12:37.097Z,70
2017-05-13T08:13:37.104Z,75
2017-05-13T08:14:37.109Z,80
2017-05-13T08:15:37.434Z,80
2017-05-13T08:16:37.454Z,80
2017-05-13T08:17:37.147Z,75
2017-05-13T08:18:37.455Z,70
2017-05-13T08:19:37.154Z,70
2017-05-13T08:20:36.853Z,70
2017-05-13T08:21:37.171Z,70
2017-05-13T08:22:37.191Z,70
2017-05-13T08:23:37.026Z,65
2017-05-13T08:24:36.884Z,65
2017-05-13T08:25:37.513Z,65
2017-05-13T08:26:37.572Z,65
2017-05-13T08:27:37.210Z,65
2017-05-13T08:28:37.535Z,65
2017-05-13T08:29:37.846Z,65
2017-05-13T08:30:36.975Z,60
2017-05-13T08:31:37.614Z,60
2017-05-13T08:32:36.945Z,70
2017-05-13T08:33:37.268Z,80
2017-05-13T08:34:37.592Z,75
2017-05-13T08:35:37.583Z,70
2017-05-13T08:36:37.335Z,75
2017-05-13T08:37:37.033Z,65
2017-05-13T08:38:37.622Z,75
2017-05-13T08:39:37.630Z,80
2017-05-13T08:40:37.415Z,75
2017-05-13T08:41:36.754Z,80
2017-05-13T08:42:37.372Z,80
2017-05-13T08:43:37.653Z,75
2017-05-13T08:44:37.696Z,70
2017-05-13T08:45:37.662Z,75
2017-05-13T08:46:37.413Z,80
2017-05-13T08:47:37.730Z,80
2017-05-13T08:48:37.382Z,85
2017-05-13T08:49:37.437Z,75
2017-05-13T08:50:37.132Z,80
2017-05-13T08:51:37.135Z,80
2017-05-13T08:52:37.402Z,65
2017-05-13T08:53:37.103Z,60
2017-05-13T08:54:37.733Z,55
2017-05-13T08:55:37.431Z,60
2017-05-13T08:56:37.487Z,85
2017-05-13T08:57:37.757Z,80
2017-05-13T08:58:37.447Z,85
2017-05-13T08:59:36.841Z,90
2017-05-13T09:00:37.475Z,65
2017-05-13T09:01:37.480Z,75
2017-05-13T09:02:37.173Z,90
2017-05-13T09:03:37.806Z,70
2017-05-13T09:04:37.808Z,75
2017-05-13T09:05:37.202Z,70
2017-05-13T09:06:36.890Z,75
2017-05-13T09:07:37.523Z,65
2017-05-13T09:08:37.886Z,65
2017-05-13T09:09:37.851Z,65
2017-05-13T09:10:37.857Z,70
2017-05-13T09:11:37.555Z,70
2017-05-13T09:12:37.882Z,70
2017-05-13T09:13:37.620Z,85
2017-05-13T09:14:37.263Z,90
2017-05-13T09:15:37.638Z,95
2017-05-13T09:16:37.595Z,70
2017-05-13T09:17:37.697Z,95
2017-05-13T09:18:37.603Z,95
2017-05-13T09:19:37.929Z,70
2017-05-13T09:20:37.984Z,80
2017-05-13T09:21:38.000Z,75
2017-05-13T09:22:37.379Z,95
2017-05-13T09:23:37.643Z,80
2017-05-13T09:24:37.445Z,70
2017-05-13T09:25:38.020Z,70
2017-05-13T09:26:37.974Z,60
2017-05-13T09:27:37.680Z,65
2017-05-13T09:28:37.997Z,65
2017-05-13T09:29:37.435Z,60
2017-05-13T09:30:38.011Z,65
2017-05-13T09:31:37.393Z,80
2017-05-13T09:32:37.407Z,65
2017-05-13T09:33:37.457Z,100
2017-05-13T09:34:37.769Z,80
2017-05-13T09:35:38.098Z,95
2017-05-13T09:36:38.052Z,85
2017-05-13T09:37:38.113Z,75
2017-05-13T09:38:37.760Z,100
2017-05-13T09:39:38.083Z,95
2017-05-13T09:40:37.465Z,90
2017-05-13T09:41:37.792Z,85
2017-05-13T09:42:37.174Z,90
2017-05-13T09:43:37.800Z,90
2017-05-13T09:44:37.515Z,70
2017-05-13T09:45:38.120Z,70
2017-05-13T09:46:38.182Z,80
2017-05-13T09:47:38.132Z,80
2017-05-13T09:48:38.148Z,90
2017-05-13T09:49:37.895Z,95
2017-05-13T09:50:37.540Z,85
2017-05-13T09:51:38.171Z,65
2017-05-13T09:52:38.189Z,60
2017-05-13T09:53:38.198Z,55
2017-05-13T09:54:38.242Z,50
2017-05-13T09:55:37.315Z,55
2017-05-13T09:56:37.277Z,75
2017-05-13T09:57:38.267Z,75
2017-05-13T09:58:38.226Z,65
2017-05-13T09:59:37.976Z,85
2017-05-13T10:00:38.283Z,85
2017-05-13T10:01:37.937Z,60
2017-05-13T10:02:37.944Z,60
2017-05-13T10:03:37.698Z,60
2017-05-13T10:04:38.267Z,60
2017-05-13T10:05:37.965Z,70
2017-05-13T10:06:38.286Z,70
2017-05-13T10:07:38.345Z,60
2017-05-13T10:08:37.984Z,75
2017-05-13T10:09:37.998Z,80
2017-05-13T10:10:38.051Z,85
2017-05-13T10:11:38.022Z,85
2017-05-13T10:12:37.087Z,85
2017-05-13T10:13:38.023Z,80
2017-05-13T10:14:37.728Z,60
2017-05-13T10:15:38.088Z,55
2017-05-13T10:16:38.098Z,75
2017-05-13T10:17:38.463Z,75
2017-05-13T10:18:38.437Z,80
2017-05-13T10:19:38.382Z,80
2017-05-13T10:20:38.440Z,80
2017-05-13T10:21:37.778Z,80
2017-05-13T10:22:38.406Z,85
2017-05-13T10:23:38.150Z,80
2017-05-13T10:24:38.159Z,70
2017-05-13T10:25:38.145Z,60
2017-05-13T10:26:37.874Z,65
2017-05-13T10:27:38.545Z,80
2017-05-13T10:28:38.143Z,70
2017-05-13T10:29:38.148Z,65
2017-05-13T10:30:37.849Z,85
2017-05-13T10:31:38.160Z,80
2017-05-13T10:32:37.866Z,75
2017-05-13T10:33:37.873Z,75
2017-05-13T10:34:38.504Z,75
2017-05-13T10:35:38.193Z,75
2017-05-13T10:36:38.513Z,75
2017-05-13T10:37:38.519Z,70
2017-05-13T10:38:38.618Z,70
2017-05-13T10:39:38.223Z,70
2017-05-13T10:40:38.230Z,70
2017-05-13T10:41:37.930Z,60
2017-05-13T10:42:37.939Z,70
2017-05-13T10:43:38.576Z,50
2017-05-13T10:44:38.312Z,50
2017-05-13T10:45:38.582Z,50
2017-05-13T10:46:38.289Z,50
2017-05-13T10:47:38.653Z,50
2017-05-13T10:48:38.302Z,50
2017-05-13T10:49:38.358Z,50
2017-05-13T10:50:38.365Z,75
2017-05-13T10:51:38.323Z,75
2017-05-13T10:52:38.637Z,70
2017-05-13T10:53:38.648Z,60
2017-05-13T10:54:38.652Z,65
2017-05-13T10:55:38.037Z,65
2017-05-13T10:56:38.735Z,65
2017-05-13T10:57:38.049Z,65
2017-05-13T10:58:38.061Z,60
2017-05-13T10:59:38.067Z,60
2017-05-13T11:00:38.383Z,60
2017-05-13T11:01:38.721Z,60
2017-05-13T11:02:38.708Z,60
2017-05-13T11:03:38.409Z,70
2017-05-13T11:04:38.814Z,75
2017-05-13T11:05:38.426Z,70
2017-05-13T11:06:38.742Z,70
2017-05-13T11:07:38.458Z,80
2017-05-13T11:08:38.284Z,85
2017-05-13T11:09:38.457Z,85
2017-05-13T11:10:38.515Z,80
2017-05-13T11:11:38.476Z,65
2017-05-13T11:12:38.222Z,75
2017-05-13T11:13:38.492Z,75
2017-05-13T11:14:38.856Z,75
2017-05-13T11:15:38.245Z,75
2017-05-13T11:16:38.811Z,70
2017-05-13T11:17:37.902Z,70
2017-05-13T11:18:38.524Z,70
2017-05-13T11:19:38.853Z,75
2017-05-13T11:20:38.278Z,55
2017-05-13T11:21:38.864Z,55
2017-05-13T11:22:38.300Z,75
2017-05-13T11:23:37.945Z,70
2017-05-13T11:24:38.572Z,70
2017-05-13T11:25:38.628Z,70
2017-05-13T11:26:38.903Z,70
2017-05-13T11:27:38.595Z,65
2017-05-13T11:28:38.959Z,65
2017-05-13T11:29:38.677Z,65
2017-05-13T11:30:38.617Z,60
2017-05-13T11:31:38.373Z,60
2017-05-13T11:32:38.413Z,70
2017-05-13T11:33:38.648Z,65
2017-05-13T11:34:38.949Z,60
2017-05-13T11:35:38.657Z,60
2017-05-13T11:36:38.669Z,60
2017-05-13T11:37:38.675Z,55
2017-05-13T11:38:38.414Z,50
2017-05-13T11:39:38.744Z,50
2017-05-13T11:40:38.691Z,45
2017-05-13T11:41:39.017Z,45
2017-05-13T11:42:38.759Z,50
2017-05-13T11:43:39.073Z,50
2017-05-13T11:44:38.414Z,50
2017-05-13T11:45:38.527Z,55
2017-05-13T11:46:38.430Z,55
2017-05-13T11:47:38.436Z,75
2017-05-13T11:48:38.790Z,70
2017-05-13T11:49:39.076Z,70
2017-05-13T11:50:39.078Z,70
2017-05-13T11:51:39.113Z,70
2017-05-13T11:52:39.200Z,70
2017-05-13T11:53:38.891Z,65
2017-05-13T11:54:39.111Z,65
2017-05-13T11:55:38.187Z,60
2017-05-13T11:56:39.127Z,60
2017-05-13T11:57:39.139Z,55
2017-05-13T11:58:39.142Z,55
2017-05-13T11:59:38.841Z,55
2017-05-13T12:00:39.159Z,55
2017-05-13T12:01:38.856Z,55
2017-05-13T12:02:38.551Z,55
2017-05-13T12:03:39.179Z,50
2017-05-13T12:04:38.877Z,50
2017-05-13T12:05:38.576Z,55
2017-05-13T12:06:38.321Z,55
2017-05-13T12:07:38.904Z,55
2017-05-13T12:08:38.644Z,55
2017-05-13T12:09:39.235Z,45
2017-05-13T12:10:38.972Z,45
2017-05-13T12:11:38.938Z,50
2017-05-13T12:12:38.629Z,60
2017-05-13T12:13:38.684Z,60
2017-05-13T12:14:38.964Z,55
2017-05-13T12:15:38.963Z,65
2017-05-13T12:16:38.980Z,65
2017-05-13T12:17:38.665Z,65
2017-05-13T12:18:38.985Z,60
2017-05-13T12:19:38.989Z,65
2017-05-13T12:20:39.311Z,65
2017-05-13T12:21:39.060Z,65
2017-05-13T12:22:39.339Z,65
2017-05-13T12:23:39.117Z,65
2017-05-13T12:24:38.813Z,60
2017-05-13T12:25:39.395Z,60
2017-05-13T12:26:38.734Z,55
2017-05-13T12:27:39.094Z,55
2017-05-13T12:28:39.428Z,50
2017-05-13T12:29:39.070Z,50
2017-05-13T12:30:39.073Z,55
2017-05-13T12:31:39.095Z,50
2017-05-13T12:32:38.827Z,50
2017-05-13T12:33:39.161Z,50
2017-05-13T12:34:39.425Z,50
2017-05-13T12:35:39.430Z,50
2017-05-13T12:36:39.433Z,50
2017-05-13T12:37:39.135Z,50
2017-05-13T12:38:39.448Z,50
2017-05-13T12:39:39.192Z,50
2017-05-13T12:40:39.159Z,50
2017-05-13T12:41:39.477Z,50
2017-05-13T12:42:39.523Z,50
2017-05-13T12:43:39.538Z,50
2017-05-13T12:44:38.929Z,50
2017-05-13T12:45:38.878Z,50
2017-05-13T12:46:39.260Z,50
2017-05-13T12:47:38.898Z,50
2017-05-13T12:48:39.619Z,45
2017-05-13T12:49:39.221Z,45
2017-05-13T12:50:38.971Z,45
2017-05-13T12:51:39.648Z,45
2017-05-13T12:52:38.934Z,45
2017-05-13T12:53:38.944Z,45
2017-05-13T12:54:39.259Z,45
2017-05-13T12:55:39.580Z,45
2017-05-13T12:56:39.581Z,50
2017-05-13T12:57:39.593Z,45
2017-05-13T12:58:39.601Z,50
2017-05-13T12:59:39.046Z,45
2017-05-13T13:00:39.305Z,45
2017-05-13T13:01:39.357Z,45
2017-05-13T13:02:39.373Z,50
2017-05-13T13:03:39.427Z,45
2017-05-13T13:04:39.643Z,45
2017-05-13T13:05:39.351Z,35
2017-05-13T13:06:39.715Z,40
2017-05-13T13:07:39.408Z,40
2017-05-13T13:08:39.361Z,40
2017-05-13T13:09:39.745Z,45
2017-05-13T13:10:39.380Z,45
2017-05-13T13:11:39.389Z,45
2017-05-13T13:12:39.135Z,50
2017-05-13T13:13:39.711Z,45
2017-05-13T13:14:39.409Z,50
2017-05-13T13:15:39.429Z,50
2017-05-13T13:16:39.117Z,45
2017-05-13T13:17:39.747Z,45
2017-05-13T13:18:39.807Z,45
2017-05-13T13:19:39.507Z,45
2017-05-13T13:20:39.253Z,45
2017-05-13T13:21:39.773Z,45
2017-05-13T13:22:39.789Z,45
2017-05-13T13:23:39.482Z,45
2017-05-13T13:24:39.485Z,45
2017-05-13T13:25:39.856Z,45
2017-05-13T13:26:39.507Z,50
2017-05-13T13:27:39.562Z,45
2017-05-13T13:28:39.522Z,45
2017-05-13T13:29:39.215Z,50
2017-05-13T13:30:39.222Z,45
2017-05-13T13:31:39.905Z,45
2017-05-13T13:32:39.546Z,45
2017-05-13T13:33:39.608Z,45
2017-05-13T13:34:39.299Z,45
2017-05-13T13:35:39.980Z,45
2017-05-13T13:36:39.889Z,45
2017-05-13T13:37:39.624Z,45
2017-05-13T13:38:39.283Z,45
2017-05-13T13:39:39.598Z,45
2017-05-13T13:40:39.603Z,45
2017-05-13T13:41:39.612Z,45
2017-05-13T13:42:39.622Z,40
2017-05-13T13:43:39.949Z,35
2017-05-13T13:44:39.644Z,40
2017-05-13T13:45:39.958Z,40
2017-05-13T13:46:39.963Z,45
2017-05-13T13:47:39.758Z,45
2017-05-13T13:48:39.978Z,45
2017-05-13T13:49:39.731Z,45
2017-05-13T13:50:39.715Z,45
2017-05-13T13:51:39.692Z,45
2017-05-13T13:52:39.699Z,45
2017-05-13T13:53:39.443Z,45
2017-05-13T13:54:39.141Z,45
2017-05-13T13:55:39.720Z,45
2017-05-13T13:56:39.729Z,40
2017-05-13T13:57:40.146Z,40
2017-05-13T13:58:39.744Z,35
2017-05-13T13:59:39.491Z,35
2017-05-13T14:00:40.066Z,40
2017-05-13T14:01:40.122Z,40
2017-05-13T14:02:39.767Z,40
2017-05-13T14:03:39.784Z,40
2017-05-13T14:04:40.150Z,40
2017-05-13T14:05:39.490Z,40
2017-05-13T14:06:39.909Z,45
2017-05-13T14:07:39.817Z,40
2017-05-13T14:08:40.133Z,40
2017-05-13T14:09:40.136Z,35
2017-05-13T14:10:40.232Z,30
2017-05-13T14:11:39.841Z,35
2017-05-13T14:12:39.852Z,35
2017-05-13T14:13:40.221Z,35
2017-05-13T14:14:40.224Z,35
2017-05-13T14:15:40.181Z,40
2017-05-13T14:16:39.880Z,40
2017-05-13T14:17:39.894Z,40
2017-05-13T14:18:40.191Z,40
2017-05-13T14:19:40.207Z,45
2017-05-13T14:20:40.320Z,40
2017-05-13T14:21:40.281Z,40
2017-05-13T14:22:40.240Z,40